METAR Data
IDs: Format: Raw Decoded Include TAF

Data at: 0240 UTC 24 Oct 2019

METAR for:KCID (Cedar Rapids/E Iowao, IA, US)
Text:KCID 240152Z 35013KT 10SM OVC080 06/03 A3001 RMK AO2 SLP168 T00560033
Temperature: 5.6°C ( 42°F)
Dewpoint: 3.3°C ( 38°F) [RH = 85%]
Pressure (altimeter):30.01 inches Hg (1016.3 mb) [Sea level pressure: 1016.8 mb]
Winds:from the N (350 degrees) at 15 MPH (13 knots; 6.7 m/s)
Visibility:10 or more sm (16+ km)
Ceiling:8000 feet AGL
Clouds: overcast cloud deck at 8000 feet AGL